createdAt,value
2018-02-27T00:01:17.011Z,102197.40
2018-02-27T00:03:45.307Z,102193.52
2018-02-27T00:06:13.718Z,102188.86
2018-02-27T00:08:42.115Z,102183.72
2018-02-27T00:11:10.455Z,102176.99
2018-02-27T00:13:40.232Z,102181.41
2018-02-27T00:16:09.035Z,102187.17
2018-02-27T00:18:37.385Z,102179.16
2018-02-27T00:21:07.019Z,102182.66
2018-02-27T00:23:35.879Z,102184.70
2018-02-27T00:26:05.418Z,102187.07
2018-02-27T00:28:33.878Z,102189.39
2018-02-27T00:31:02.206Z,102187.55
2018-02-27T00:33:32.835Z,102185.28
2018-02-27T00:36:02.604Z,102186.13
2018-02-27T00:38:30.938Z,102174.34
2018-02-27T00:40:59.756Z,102178.23
2018-02-27T00:43:28.380Z,102176.71
2018-02-27T00:45:56.815Z,102176.15
2018-02-27T00:48:25.201Z,102175.73
2018-02-27T00:50:54.033Z,102173.20
2018-02-27T00:53:22.676Z,102168.06
2018-02-27T00:55:50.988Z,102179.75
2018-02-27T00:58:19.299Z,102170.82
2018-02-27T01:00:47.799Z,102179.98
2018-02-27T01:03:16.115Z,102175.58
2018-02-27T01:05:44.641Z,102174.02
2018-02-27T01:08:13.043Z,102168.70
2018-02-27T01:10:41.348Z,102162.16
2018-02-27T01:13:09.648Z,102166.11
2018-02-27T01:15:37.960Z,102157.35
2018-02-27T01:18:06.272Z,102157.31
2018-02-27T01:20:34.596Z,102160.73
2018-02-27T01:23:02.872Z,102154.83
2018-02-27T01:25:31.385Z,102152.70
2018-02-27T01:27:59.699Z,102159.66
2018-02-27T01:30:28.042Z,102151.66
2018-02-27T01:32:56.379Z,102146.88
2018-02-27T01:35:24.717Z,102148.67
2018-02-27T01:37:53.007Z,102148.03
2018-02-27T01:40:21.344Z,102139.31
2018-02-27T01:42:49.627Z,102135.63
2018-02-27T01:45:18.112Z,102144.78
2018-02-27T01:47:46.651Z,102140.67
2018-02-27T01:50:15.005Z,102143.15
2018-02-27T01:52:43.302Z,102141.85
2018-02-27T01:55:11.807Z,102143.02
2018-02-27T01:57:40.119Z,102135.90
2018-02-27T02:00:08.435Z,102128.56
2018-02-27T02:02:36.739Z,102122.67
2018-02-27T02:05:05.057Z,102121.98
2018-02-27T02:07:33.413Z,102124.49
2018-02-27T02:10:01.676Z,102116.81
2018-02-27T02:12:30.063Z,102120.59
2018-02-27T02:14:58.359Z,102116.45
2018-02-27T02:17:26.838Z,102111.66
2018-02-27T02:19:55.141Z,102115.06
2018-02-27T02:22:23.480Z,102104.27
2018-02-27T02:24:51.908Z,102112.20
2018-02-27T02:27:20.236Z,102107.50
2018-02-27T02:29:48.789Z,102105.09
2018-02-27T02:32:17.188Z,102110.30
2018-02-27T02:34:45.636Z,102102.95
2018-02-27T02:37:13.955Z,102101.77
2018-02-27T02:39:42.229Z,102096.37
2018-02-27T02:42:19.596Z,102104.52
2018-02-27T02:44:47.971Z,102106.33
2018-02-27T02:47:16.579Z,102100.22
2018-02-27T02:49:45.251Z,102100.20
2018-02-27T02:52:13.611Z,102098.25
2018-02-27T02:54:41.889Z,102095.48
2018-02-27T02:57:10.250Z,102091.04
2018-02-27T02:59:38.640Z,102086.58
2018-02-27T03:02:07.127Z,102087.66
2018-02-27T03:04:35.403Z,102086.97
2018-02-27T03:07:03.716Z,102083.26
2018-02-27T03:09:32.061Z,102076.89
2018-02-27T03:12:00.407Z,102082.21
2018-02-27T03:14:28.939Z,102083.52
2018-02-27T03:16:57.242Z,102082.09
2018-02-27T03:19:25.560Z,102076.42
2018-02-27T03:21:53.909Z,102085.59
2018-02-27T03:24:22.183Z,102081.44
2018-02-27T03:26:50.488Z,102076.50
2018-02-27T03:29:18.902Z,102072.22
2018-02-27T03:31:47.271Z,102071.90
2018-02-27T03:34:15.562Z,102072.75
2018-02-27T03:36:43.862Z,102065.41
2018-02-27T03:39:12.190Z,102059.87
2018-02-27T03:41:40.560Z,102053.73
2018-02-27T03:44:08.875Z,102055.50
2018-02-27T03:46:37.184Z,102053.25
2018-02-27T03:49:05.573Z,102048.11
2018-02-27T03:51:33.942Z,102051.36
2018-02-27T03:54:02.451Z,102047.64
2018-02-27T03:56:30.757Z,102045.27
2018-02-27T03:58:59.056Z,102037.11
2018-02-27T04:01:27.390Z,102043.30
2018-02-27T04:03:55.700Z,102034.66
2018-02-27T04:06:24.066Z,102039.82
2018-02-27T04:08:52.347Z,102040.02
2018-02-27T04:11:20.704Z,102040.54
2018-02-27T04:13:49.068Z,102039.45
2018-02-27T04:16:17.401Z,102036.21
2018-02-27T04:18:45.748Z,102045.02
2018-02-27T04:21:14.127Z,102039.30
2018-02-27T04:23:42.412Z,102041.20
2018-02-27T04:26:10.714Z,102041.99
2018-02-27T04:28:38.974Z,102048.52
2018-02-27T04:31:07.296Z,102044.96
2018-02-27T04:33:35.653Z,102031.34
2018-02-27T04:36:03.968Z,102044.48
2018-02-27T04:38:32.319Z,102037.55
2018-02-27T04:41:00.706Z,102037.91
2018-02-27T04:43:29.739Z,102037.81
2018-02-27T04:45:58.059Z,102036.06
2018-02-27T04:48:26.324Z,102028.53
2018-02-27T04:50:54.660Z,102029.08
2018-02-27T04:53:23.228Z,102031.50
2018-02-27T04:55:51.565Z,102026.73
2018-02-27T04:58:19.874Z,102026.63
2018-02-27T05:06:39.836Z,102015.18
2018-02-27T05:09:08.117Z,102013.66
2018-02-27T05:11:36.748Z,102015.04
2018-02-27T05:14:05.668Z,102010.48
2018-02-27T05:16:33.985Z,102005.44
2018-02-27T05:19:02.371Z,102014.34
2018-02-27T05:21:30.885Z,102001.09
2018-02-27T05:24:00.024Z,102005.12
2018-02-27T05:26:28.545Z,101999.61
2018-02-27T05:28:57.254Z,101997.13
2018-02-27T05:31:25.743Z,101993.75
2018-02-27T05:33:54.054Z,101991.35
2018-02-27T05:36:22.451Z,101996.23
2018-02-27T05:38:50.746Z,101997.66
2018-02-27T05:41:19.043Z,101997.91
2018-02-27T05:43:47.511Z,102002.73
2018-02-27T05:46:15.869Z,101996.70
2018-02-27T05:48:44.378Z,101990.88
2018-02-27T05:51:12.698Z,101992.36
2018-02-27T05:53:41.929Z,101992.14
2018-02-27T05:56:11.326Z,101996.77
2018-02-27T05:58:39.619Z,101996.81
2018-02-27T06:01:09.431Z,101992.63
2018-02-27T06:03:38.143Z,101991.30
2018-02-27T06:06:13.323Z,101997.13
2018-02-27T06:08:42.787Z,101998.25
2018-02-27T06:11:11.145Z,101997.34
2018-02-27T06:13:42.626Z,102001.04
2018-02-27T06:16:12.335Z,101997.66
2018-02-27T06:18:41.595Z,101996.64
2018-02-27T06:21:10.450Z,102000.98
2018-02-27T06:23:39.858Z,101999.56
2018-02-27T06:26:12.107Z,101993.20
2018-02-27T06:28:41.295Z,101989.45
2018-02-27T06:31:14.120Z,101992.08
2018-02-27T06:33:44.958Z,101983.95
2018-02-27T06:36:15.158Z,101991.59
2018-02-27T06:38:45.469Z,101990.75
2018-02-27T06:41:16.007Z,101996.78
2018-02-27T06:43:46.455Z,101996.72
2018-02-27T06:46:15.943Z,101999.12
2018-02-27T06:48:44.677Z,101989.27
2018-02-27T06:51:13.033Z,101987.28
2018-02-27T06:53:41.435Z,101990.49
2018-02-27T06:56:09.772Z,101989.95
2018-02-27T06:58:38.131Z,101987.88
2018-02-27T07:01:06.483Z,101991.52
2018-02-27T07:03:34.844Z,101990.59
2018-02-27T07:06:03.213Z,101988.61
2018-02-27T07:08:31.516Z,101994.00
2018-02-27T07:10:59.840Z,101988.08
2018-02-27T07:13:28.172Z,101995.15
2018-02-27T07:15:56.500Z,101987.38
2018-02-27T07:18:24.867Z,101986.17
2018-02-27T07:20:53.335Z,101981.27
2018-02-27T07:23:21.643Z,101977.35
2018-02-27T07:25:49.961Z,101979.33
2018-02-27T07:28:18.368Z,101979.14
2018-02-27T07:30:46.748Z,101967.77
2018-02-27T07:33:15.273Z,101969.03
2018-02-27T07:35:43.591Z,101971.27
2018-02-27T07:38:11.906Z,101960.20
2018-02-27T07:40:40.245Z,101964.11
2018-02-27T07:43:08.563Z,101962.22
2018-02-27T07:45:36.884Z,101957.42
2018-02-27T07:48:05.161Z,101960.65
2018-02-27T07:50:33.467Z,101966.14
2018-02-27T07:53:01.824Z,101955.84
2018-02-27T07:55:30.181Z,101961.94
2018-02-27T07:57:58.470Z,101961.81
2018-02-27T08:00:26.811Z,101954.55
2018-02-27T08:02:55.133Z,101945.81
2018-02-27T08:05:23.478Z,101948.86
2018-02-27T08:07:51.794Z,101943.67
2018-02-27T08:10:20.120Z,101950.79
2018-02-27T08:12:48.408Z,101944.08
2018-02-27T08:15:16.802Z,101941.70
2018-02-27T08:17:45.260Z,101947.33
2018-02-27T08:20:13.979Z,101939.31
2018-02-27T08:22:42.306Z,101942.64
2018-02-27T08:25:10.675Z,101945.39
2018-02-27T08:27:38.996Z,101943.70
2018-02-27T08:30:07.303Z,101941.87
2018-02-27T08:32:35.727Z,101946.09
2018-02-27T08:35:04.050Z,101945.42
2018-02-27T08:37:32.372Z,101945.07
2018-02-27T08:40:00.649Z,101941.63
2018-02-27T08:42:29.052Z,101942.89
2018-02-27T08:44:57.312Z,101946.21
2018-02-27T08:47:25.680Z,101937.13
2018-02-27T08:49:53.991Z,101939.05
2018-02-27T08:52:22.736Z,101936.20
2018-02-27T08:54:51.222Z,101940.00
2018-02-27T08:57:19.575Z,101939.25
2018-02-27T08:59:47.887Z,101935.19
2018-02-27T09:02:16.271Z,101928.15
2018-02-27T09:04:44.572Z,101923.45
2018-02-27T09:07:12.931Z,101926.28
2018-02-27T09:09:41.231Z,101920.42
2018-02-27T09:12:09.610Z,101924.63
2018-02-27T09:14:37.992Z,101931.03
2018-02-27T09:17:06.346Z,101927.34
2018-02-27T09:19:34.655Z,101914.39
2018-02-27T09:22:03.016Z,101917.18
2018-02-27T09:24:31.331Z,101920.87
2018-02-27T09:26:59.852Z,101914.29
2018-02-27T09:29:28.151Z,101910.28
2018-02-27T09:31:56.475Z,101909.94
2018-02-27T09:34:24.911Z,101905.80
2018-02-27T09:36:53.324Z,101898.54
2018-02-27T09:39:21.648Z,101898.85
2018-02-27T09:41:49.955Z,101899.03
2018-02-27T09:44:18.404Z,101900.87
2018-02-27T09:46:46.741Z,101898.24
2018-02-27T09:49:15.084Z,101895.77
2018-02-27T09:51:43.416Z,101894.19
2018-02-27T09:54:12.047Z,101890.92
2018-02-27T09:56:40.558Z,101890.70
2018-02-27T09:59:08.848Z,101886.22
2018-02-27T10:01:37.302Z,101888.90
2018-02-27T10:04:05.584Z,101899.91
2018-02-27T10:06:33.945Z,101886.36
2018-02-27T10:09:02.415Z,101891.52
2018-02-27T10:11:30.778Z,101885.61
2018-02-27T10:13:59.063Z,101881.84
2018-02-27T10:16:27.364Z,101882.70
2018-02-27T10:18:55.714Z,101881.26
2018-02-27T10:21:24.023Z,101877.94
2018-02-27T10:23:52.372Z,101879.02
2018-02-27T10:26:20.871Z,101886.46
2018-02-27T10:28:49.195Z,101889.06
2018-02-27T10:31:17.504Z,101889.95
2018-02-27T10:33:45.810Z,101880.68
2018-02-27T10:36:14.161Z,101869.05
2018-02-27T10:38:42.629Z,101872.66
2018-02-27T10:41:11.264Z,101871.06
2018-02-27T10:43:39.581Z,101868.86
2018-02-27T10:46:07.892Z,101867.75
2018-02-27T10:48:36.171Z,101867.16
2018-02-27T10:51:04.478Z,101858.30
2018-02-27T10:53:32.791Z,101859.22
2018-02-27T10:56:01.092Z,101856.23
2018-02-27T10:58:29.427Z,101850.59
2018-02-27T11:00:57.800Z,101846.97
2018-02-27T11:03:26.169Z,101847.56
2018-02-27T11:05:54.128Z,101842.88
2018-02-27T11:08:22.480Z,101837.36
2018-02-27T11:10:50.799Z,101839.98
2018-02-27T11:13:19.151Z,101829.83
2018-02-27T11:15:47.460Z,101828.50
2018-02-27T11:18:15.740Z,101827.08
2018-02-27T11:20:44.059Z,101819.27
2018-02-27T11:23:12.378Z,101818.22
2018-02-27T11:25:40.685Z,101816.55
2018-02-27T11:28:09.251Z,101813.33
2018-02-27T11:30:37.831Z,101817.16
2018-02-27T11:33:06.454Z,101813.23
2018-02-27T11:35:34.827Z,101810.19
2018-02-27T11:38:03.226Z,101796.27
2018-02-27T11:40:31.541Z,101800.04
2018-02-27T11:42:59.831Z,101792.95
2018-02-27T11:45:28.151Z,101802.63
2018-02-27T11:47:56.469Z,101798.05
2018-02-27T11:50:24.770Z,101810.68
2018-02-27T11:52:53.270Z,101800.50
2018-02-27T11:55:21.786Z,101789.55
2018-02-27T11:57:50.242Z,101785.73
2018-02-27T12:00:18.619Z,101786.94
2018-02-27T12:02:47.195Z,101788.86
2018-02-27T12:05:16.820Z,101785.47
2018-02-27T12:07:45.138Z,101789.92
2018-02-27T12:10:13.482Z,101793.81
2018-02-27T12:12:41.832Z,101787.39
2018-02-27T12:15:10.239Z,101792.59
2018-02-27T12:17:38.555Z,101791.21
2018-02-27T12:20:06.858Z,101799.56
2018-02-27T12:22:35.165Z,101790.78
2018-02-27T12:25:03.468Z,101792.04
2018-02-27T12:27:31.826Z,101785.33
2018-02-27T12:30:00.108Z,101797.27
2018-02-27T12:32:28.458Z,101797.06
2018-02-27T12:34:56.758Z,101788.27
2018-02-27T12:37:25.079Z,101788.33
2018-02-27T12:39:53.392Z,101790.89
2018-02-27T12:42:21.718Z,101791.29
2018-02-27T12:44:50.126Z,101799.58
2018-02-27T12:47:18.473Z,101797.50
2018-02-27T12:49:46.755Z,101787.95
2018-02-27T12:52:15.185Z,101788.16
2018-02-27T12:54:43.465Z,101782.61
2018-02-27T12:57:12.008Z,101786.28
2018-02-27T12:59:40.314Z,101789.42
2018-02-27T13:02:08.811Z,101781.58
2018-02-27T13:04:37.111Z,101788.14
2018-02-27T13:07:05.627Z,101788.89
2018-02-27T13:09:33.922Z,101787.20
2018-02-27T13:12:02.254Z,101782.85
2018-02-27T13:14:30.613Z,101785.67
2018-02-27T13:16:58.962Z,101787.92
2018-02-27T13:19:27.277Z,101775.59
2018-02-27T13:21:55.572Z,101780.55
2018-02-27T13:24:23.832Z,101780.02
2018-02-27T13:26:52.172Z,101783.98
2018-02-27T13:29:20.567Z,101775.33
2018-02-27T13:31:48.938Z,101779.97
2018-02-27T13:34:17.551Z,101776.19
2018-02-27T13:36:46.159Z,101775.59
2018-02-27T13:39:14.463Z,101786.81
2018-02-27T13:41:42.775Z,101786.23
2018-02-27T13:44:11.100Z,101786.72
2018-02-27T13:46:39.438Z,101790.39
2018-02-27T13:49:07.809Z,101779.73
2018-02-27T13:51:36.234Z,101778.52
2018-02-27T13:54:04.510Z,101774.93
2018-02-27T13:56:32.834Z,101774.56
2018-02-27T14:01:35.880Z,101769.48
2018-02-27T14:04:04.282Z,101767.00
2018-02-27T14:06:32.587Z,101775.22
2018-02-27T14:09:01.083Z,101769.20
2018-02-27T14:11:29.554Z,101766.39
2018-02-27T14:13:57.881Z,101766.66
2018-02-27T14:16:26.910Z,101767.52
2018-02-27T14:18:55.284Z,101763.79
2018-02-27T14:21:23.920Z,101766.03
2018-02-27T14:23:52.387Z,101761.02
2018-02-27T14:26:20.796Z,101757.42
2018-02-27T14:28:49.239Z,101767.69
2018-02-27T14:31:17.705Z,101764.61
2018-02-27T14:33:46.599Z,101766.55
2018-02-27T14:36:14.883Z,101760.68
2018-02-27T14:38:44.159Z,101766.04
2018-02-27T14:41:12.759Z,101762.66
2018-02-27T14:43:41.315Z,101765.69
2018-02-27T14:46:09.951Z,101765.06
2018-02-27T14:48:38.315Z,101767.84
2018-02-27T14:51:06.974Z,101780.85
2018-02-27T14:53:36.687Z,101778.75
2018-02-27T14:56:05.098Z,101777.05
2018-02-27T14:58:33.395Z,101777.31
2018-02-27T15:01:01.776Z,101786.20
2018-02-27T15:03:30.310Z,101784.36
2018-02-27T15:05:58.740Z,101786.04
2018-02-27T15:08:27.271Z,101794.56
2018-02-27T15:10:55.571Z,101789.52
2018-02-27T15:13:24.059Z,101792.79
2018-02-27T15:15:52.346Z,101800.06
2018-02-27T15:18:20.823Z,101805.11
2018-02-27T15:20:49.181Z,101808.27
2018-02-27T15:23:17.928Z,101806.90
2018-02-27T15:25:46.252Z,101800.97
2018-02-27T15:28:14.589Z,101802.31
2018-02-27T15:30:42.919Z,101801.31
2018-02-27T15:33:11.211Z,101807.02
2018-02-27T15:35:39.743Z,101812.02
2018-02-27T15:38:09.111Z,101809.63
2018-02-27T15:40:37.492Z,101812.23
2018-02-27T15:43:05.803Z,101822.20
2018-02-27T15:45:34.113Z,101819.14
2018-02-27T15:48:02.447Z,101818.50
2018-02-27T15:50:30.801Z,101821.94
2018-02-27T15:52:59.175Z,101824.75
2018-02-27T15:55:27.647Z,101825.51
2018-02-27T15:57:56.703Z,101826.67
2018-02-27T16:00:25.427Z,101824.30
2018-02-27T16:02:54.082Z,101822.72
2018-02-27T16:05:22.419Z,101829.45
2018-02-27T16:07:50.746Z,101829.31
2018-02-27T16:10:19.059Z,101817.05
2018-02-27T16:12:47.376Z,101820.84
2018-02-27T16:15:15.675Z,101827.48
2018-02-27T16:17:43.998Z,101820.83
2018-02-27T16:20:12.342Z,101830.14
2018-02-27T16:22:40.662Z,101832.14
2018-02-27T16:25:09.039Z,101838.94
2018-02-27T16:27:37.459Z,101837.25
2018-02-27T16:30:05.790Z,101840.72
2018-02-27T16:32:34.147Z,101839.05
2018-02-27T16:35:02.587Z,101847.77
2018-02-27T16:37:30.898Z,101848.11
2018-02-27T16:39:59.208Z,101856.05
2018-02-27T16:42:27.580Z,101853.80
2018-02-27T16:44:56.163Z,101857.57
2018-02-27T16:47:24.757Z,101859.47
2018-02-27T16:49:53.306Z,101861.24
2018-02-27T16:52:21.617Z,101866.27
2018-02-27T16:54:49.971Z,101869.94
2018-02-27T16:57:18.283Z,101867.09
2018-02-27T16:59:46.829Z,101875.55
2018-02-27T17:02:15.232Z,101874.84
2018-02-27T17:04:43.632Z,101888.30
2018-02-27T17:07:11.951Z,101884.67
2018-02-27T17:09:40.227Z,101889.33
2018-02-27T17:12:08.591Z,101892.55
2018-02-27T17:14:37.148Z,101897.20
2018-02-27T17:17:05.464Z,101900.30
2018-02-27T17:19:33.904Z,101900.32
2018-02-27T17:22:02.235Z,101902.27
2018-02-27T17:24:30.516Z,101907.89
2018-02-27T17:26:58.823Z,101910.42
2018-02-27T17:29:27.148Z,101911.42
2018-02-27T17:31:56.452Z,101913.03
2018-02-27T17:34:25.343Z,101919.11
2018-02-27T17:36:53.915Z,101919.17
2018-02-27T17:39:22.284Z,101920.22
2018-02-27T17:41:50.943Z,101913.20
2018-02-27T17:44:19.246Z,101918.30
2018-02-27T17:46:47.616Z,101916.01
2018-02-27T17:49:16.781Z,101919.91
2018-02-27T17:51:45.795Z,101928.26
2018-02-27T17:54:14.127Z,101923.75
2018-02-27T17:56:42.466Z,101926.58
2018-02-27T17:59:10.812Z,101913.59
2018-02-27T18:01:39.464Z,101920.48
2018-02-27T18:04:07.783Z,101922.36
2018-02-27T18:06:36.287Z,101926.31
2018-02-27T18:09:05.706Z,101924.06
2018-02-27T18:11:34.029Z,101924.28
2018-02-27T18:14:02.305Z,101921.30
2018-02-27T18:16:30.628Z,101926.62
2018-02-27T18:18:58.922Z,101921.63
2018-02-27T18:21:27.270Z,101925.55
2018-02-27T18:23:55.641Z,101928.16
2018-02-27T18:26:24.191Z,101927.48
2018-02-27T18:28:52.488Z,101936.81
2018-02-27T18:31:20.850Z,101939.13
2018-02-27T18:33:49.155Z,101944.11
2018-02-27T18:36:17.485Z,101943.91
2018-02-27T18:38:45.980Z,101949.06
2018-02-27T18:41:14.343Z,101952.08
2018-02-27T18:43:42.846Z,101953.33
2018-02-27T18:46:11.480Z,101951.52
2018-02-27T18:48:39.812Z,101946.83
2018-02-27T18:51:08.288Z,101949.54
2018-02-27T18:53:36.574Z,101951.75
2018-02-27T18:56:04.965Z,101953.64
2018-02-27T18:58:33.306Z,101949.42
2018-02-27T19:01:01.655Z,101958.45
2018-02-27T19:03:30.079Z,101953.20
2018-02-27T19:05:58.462Z,101958.30
2018-02-27T19:08:27.121Z,101962.31
2018-02-27T19:10:55.666Z,101963.80
2018-02-27T19:13:24.018Z,101962.72
2018-02-27T19:15:52.528Z,101971.33
2018-02-27T19:18:21.122Z,101971.00
2018-02-27T19:20:49.671Z,101973.84
2018-02-27T19:23:18.117Z,101977.97
2018-02-27T19:25:46.496Z,101979.41
2018-02-27T19:30:49.803Z,101985.97
2018-02-27T19:33:18.103Z,101986.84
2018-02-27T19:35:48.610Z,101984.92
2018-02-27T19:38:17.140Z,101984.20
2018-02-27T19:40:45.480Z,101982.23
2018-02-27T19:43:13.803Z,101976.25
2018-02-27T19:45:42.242Z,101984.53
2018-02-27T20:42:24.252Z,102037.48
2018-02-27T20:44:54.919Z,102046.03
2018-02-27T20:47:23.935Z,102049.50
2018-02-27T20:49:53.013Z,102044.63
2018-02-27T20:52:23.225Z,102052.42
2018-02-27T20:54:52.023Z,102049.05
2018-02-27T20:57:20.740Z,102050.16
2018-02-27T20:59:52.536Z,102053.48
2018-02-27T21:02:22.564Z,102056.26
2018-02-27T21:04:52.561Z,102055.50
2018-02-27T21:07:21.598Z,102059.80
2018-02-27T21:09:51.161Z,102062.17
2018-02-27T21:12:22.073Z,102063.77
2018-02-27T21:14:53.618Z,102068.55
2018-02-27T21:17:23.162Z,102075.74
2018-02-27T21:19:52.655Z,102075.13
2018-02-27T21:22:21.319Z,102077.14
2018-02-27T21:24:50.128Z,102071.43
2018-02-27T21:27:19.333Z,102077.44
2018-02-27T21:29:49.257Z,102075.14
2018-02-27T21:32:19.194Z,102084.45
2018-02-27T21:34:48.242Z,102084.57
2018-02-27T21:37:17.830Z,102085.13
2018-02-27T21:39:47.156Z,102089.73
2018-02-27T21:42:17.708Z,102103.46
2018-02-27T21:44:46.890Z,102100.25
2018-02-27T21:47:16.598Z,102106.02
2018-02-27T21:49:45.485Z,102111.73
2018-02-27T21:52:14.859Z,102111.61
2018-02-27T21:54:43.920Z,102114.06
2018-02-27T21:57:12.699Z,102117.36
2018-02-27T21:59:41.244Z,102106.08
2018-02-27T22:02:11.327Z,102110.49
2018-02-27T22:04:39.887Z,102127.31
2018-02-27T22:07:08.697Z,102119.91
2018-02-27T22:09:37.193Z,102123.03
2018-02-27T22:12:05.740Z,102124.23
2018-02-27T22:14:34.277Z,102119.41
2018-02-27T22:17:02.804Z,102125.76
2018-02-27T22:19:31.318Z,102104.52
2018-02-27T22:21:59.908Z,102131.36
2018-02-27T22:24:28.878Z,102134.17
2018-02-27T22:26:57.327Z,102136.14
2018-02-27T22:29:25.848Z,102141.16
2018-02-27T22:31:54.325Z,102139.33
2018-02-27T22:34:22.835Z,102142.56
2018-02-27T22:36:51.338Z,102138.69
2018-02-27T22:39:20.004Z,102140.11
2018-02-27T22:41:48.648Z,102141.78
2018-02-27T22:44:17.118Z,102145.67
2018-02-27T22:47:48.651Z,102146.86
2018-02-27T22:50:17.209Z,102146.59
2018-02-27T22:52:45.655Z,102147.69
2018-02-27T22:55:14.254Z,102141.66
2018-02-27T22:57:42.722Z,102152.42
2018-02-27T23:00:11.452Z,102151.63
2018-02-27T23:02:39.971Z,102161.38
2018-02-27T23:05:08.748Z,102161.31
2018-02-27T23:07:37.418Z,102165.48
2018-02-27T23:10:05.897Z,102161.68
2018-02-27T23:12:34.322Z,102163.21
2018-02-27T23:15:02.787Z,102158.59
2018-02-27T23:17:34.176Z,102159.13
2018-02-27T23:20:02.647Z,102156.15
2018-02-27T23:22:31.143Z,102154.50
2018-02-27T23:25:18.204Z,102153.68
2018-02-27T23:27:57.747Z,102145.20
2018-02-27T23:30:28.617Z,102153.52
2018-02-27T23:33:05.703Z,102159.02
2018-02-27T23:35:34.422Z,102157.16
2018-02-27T23:38:02.835Z,102161.98
2018-02-27T23:40:31.430Z,102152.30
2018-02-27T23:43:00.180Z,102160.99
2018-02-27T23:45:28.879Z,102152.14
2018-02-27T23:47:57.328Z,102153.20
2018-02-27T23:50:25.869Z,102152.74
2018-02-27T23:52:54.319Z,102146.93
2018-02-27T23:55:23.020Z,102157.25
2018-02-27T23:57:51.463Z,102159.46
